createdAt,value
2019-03-25T00:00:09.275Z,63.28
2019-03-25T00:02:42.850Z,63.63
2019-03-25T00:05:14.286Z,65.90
2019-03-25T00:07:45.445Z,65.72
2019-03-25T00:10:16.561Z,67.80
2019-03-25T00:12:48.130Z,67.25
2019-03-25T00:15:19.311Z,77.30
2019-03-25T00:17:50.622Z,73.40
2019-03-25T00:20:22.073Z,76.75
2019-03-25T00:22:53.644Z,77.17
2019-03-25T00:25:25.040Z,89.20
2019-03-25T00:27:56.187Z,88.67
2019-03-25T00:30:27.373Z,85.62
2019-03-25T00:32:58.519Z,90.87
2019-03-25T00:35:30.070Z,88.62
2019-03-25T00:38:02.056Z,89.30
2019-03-25T00:40:33.582Z,93.72
2019-03-25T00:43:04.968Z,98.92
2019-03-25T00:45:36.214Z,95.95
2019-03-25T00:48:07.841Z,99.87
2019-03-25T00:50:39.110Z,96.25
2019-03-25T00:53:10.421Z,99.95
2019-03-25T00:55:41.890Z,93.00
2019-03-25T00:58:14.065Z,104.07
2019-03-25T01:00:46.271Z,131.78
2019-03-25T01:03:18.355Z,118.20
2019-03-25T01:05:49.595Z,123.67
2019-03-25T01:08:21.776Z,113.30
2019-03-25T01:10:52.819Z,117.30
2019-03-25T01:13:24.409Z,110.42
2019-03-25T01:15:55.852Z,113.30
2019-03-25T01:18:26.979Z,118.97
2019-03-25T01:20:58.164Z,116.05
2019-03-25T01:23:29.442Z,117.47
2019-03-25T01:26:00.953Z,107.55
2019-03-25T01:28:32.254Z,115.90
2019-03-25T01:31:03.578Z,108.30
2019-03-25T01:33:36.070Z,110.55
2019-03-25T01:36:07.474Z,113.52
2019-03-25T01:38:38.928Z,120.53
2019-03-25T01:41:10.089Z,120.25
2019-03-25T01:43:41.524Z,132.10
2019-03-25T01:46:12.914Z,139.43
2019-03-25T01:48:44.511Z,150.62
2019-03-25T01:51:15.731Z,135.48
2019-03-25T01:53:48.008Z,139.03
2019-03-25T01:56:19.417Z,141.77
2019-03-25T01:58:50.869Z,148.43
2019-03-25T02:01:22.098Z,149.40
2019-03-25T02:03:54.441Z,137.60
2019-03-25T02:06:26.026Z,140.25
2019-03-25T02:08:57.106Z,147.15
2019-03-25T02:11:28.546Z,135.88
2019-03-25T02:13:59.733Z,138.57
2019-03-25T02:16:31.522Z,146.37
2019-03-25T02:19:03.731Z,150.87
2019-03-25T02:21:35.154Z,147.75
2019-03-25T02:24:06.475Z,149.12
2019-03-25T02:26:37.988Z,154.90
2019-03-25T02:29:09.334Z,149.35
2019-03-25T02:31:40.765Z,143.32
2019-03-25T02:34:12.139Z,147.02
2019-03-25T02:36:43.762Z,130.35
2019-03-25T02:39:15.146Z,151.50
2019-03-25T02:41:46.587Z,144.62
2019-03-25T02:44:18.012Z,149.00
2019-03-25T02:46:50.457Z,144.90
2019-03-25T02:49:22.106Z,143.78
2019-03-25T02:51:53.524Z,176.72
2019-03-25T02:54:24.684Z,197.85
2019-03-25T02:56:55.895Z,180.78
2019-03-25T02:59:27.110Z,186.95
2019-03-25T03:01:58.428Z,146.60
2019-03-25T03:04:30.855Z,157.27
2019-03-25T03:07:02.119Z,153.20
2019-03-25T03:09:33.598Z,157.05
2019-03-25T03:12:05.116Z,162.22
2019-03-25T03:14:36.957Z,163.05
2019-03-25T03:17:09.137Z,170.95
2019-03-25T03:19:40.659Z,169.82
2019-03-25T03:22:12.186Z,188.95
2019-03-25T03:24:43.608Z,184.28
2019-03-25T03:27:15.091Z,157.15
2019-03-25T03:29:46.850Z,173.22
2019-03-25T03:32:18.157Z,146.53
2019-03-25T03:34:49.551Z,136.43
2019-03-25T03:37:22.217Z,133.67
2019-03-25T03:39:53.432Z,134.45
2019-03-25T03:42:25.611Z,130.18
2019-03-25T03:44:56.849Z,133.43
2019-03-25T03:47:28.528Z,130.45
2019-03-25T03:49:59.942Z,141.05
2019-03-25T03:52:31.494Z,130.60
2019-03-25T03:55:05.290Z,124.45
2019-03-25T03:57:37.342Z,128.15
2019-03-25T04:00:10.437Z,118.35
2019-03-25T04:02:43.173Z,136.95
2019-03-25T04:05:15.126Z,121.05
2019-03-25T04:07:46.337Z,121.07
2019-03-25T04:10:17.844Z,127.50
2019-03-25T04:12:49.017Z,133.87
2019-03-25T04:15:29.647Z,126.35
2019-03-25T04:18:01.915Z,128.32
2019-03-25T04:20:32.997Z,126.02
2019-03-25T04:23:04.811Z,130.95
2019-03-25T04:25:37.373Z,127.38
2019-03-25T04:28:10.140Z,136.77
2019-03-25T04:30:41.610Z,114.40
2019-03-25T04:33:13.081Z,121.45
2019-03-25T04:35:44.501Z,112.03
2019-03-25T04:38:15.977Z,110.95
2019-03-25T04:40:46.986Z,110.78
2019-03-25T04:43:18.561Z,109.52
2019-03-25T04:45:49.821Z,129.45
2019-03-25T04:48:21.014Z,115.30
2019-03-25T04:50:52.378Z,140.45
2019-03-25T04:53:24.179Z,122.00
2019-03-25T04:55:55.584Z,94.97
2019-03-25T04:58:27.224Z,116.53
2019-03-25T05:00:58.835Z,102.70
2019-03-25T05:03:30.327Z,106.05
2019-03-25T05:06:03.482Z,88.30
2019-03-25T05:08:35.862Z,82.50
2019-03-25T05:11:08.286Z,92.10
2019-03-25T05:13:39.549Z,91.12
2019-03-25T05:16:10.700Z,88.12
2019-03-25T05:18:42.598Z,95.47
2019-03-25T05:21:14.235Z,83.07
2019-03-25T05:23:45.782Z,86.57
2019-03-25T05:26:17.645Z,86.22
2019-03-25T05:28:49.422Z,84.85
2019-03-25T05:31:23.184Z,95.42
2019-03-25T05:33:54.713Z,108.72
2019-03-25T05:36:26.239Z,121.13
2019-03-25T05:38:57.729Z,110.10
2019-03-25T05:41:29.176Z,124.35
2019-03-25T05:44:00.626Z,109.05
2019-03-25T05:46:32.041Z,109.92
2019-03-25T05:49:03.372Z,105.05
2019-03-25T05:51:34.981Z,108.30
2019-03-25T05:54:06.800Z,108.75
2019-03-25T05:56:38.261Z,98.03
2019-03-25T05:59:10.444Z,99.15
2019-03-25T06:01:44.097Z,93.90
2019-03-25T06:04:14.896Z,99.83
2019-03-25T06:06:47.275Z,96.17
2019-03-25T06:09:19.818Z,95.57
2019-03-25T06:11:51.720Z,102.10
2019-03-25T06:14:23.140Z,101.87
2019-03-25T06:16:54.388Z,94.42
2019-03-25T06:19:25.831Z,91.55
2019-03-25T06:21:57.237Z,91.35
2019-03-25T06:24:28.967Z,88.60
2019-03-25T06:27:00.166Z,93.07
2019-03-25T06:29:32.095Z,95.25
2019-03-25T06:32:04.732Z,91.60
2019-03-25T06:34:35.993Z,85.47
2019-03-25T06:37:07.470Z,91.53
2019-03-25T06:39:38.878Z,94.87
2019-03-25T06:42:10.961Z,88.95
2019-03-25T06:44:42.294Z,92.20
2019-03-25T06:47:13.599Z,85.92
2019-03-25T06:49:44.808Z,83.92
2019-03-25T06:52:17.048Z,77.58
2019-03-25T06:54:49.075Z,78.83
2019-03-25T06:57:25.817Z,83.85
2019-03-25T06:59:54.907Z,78.02
2019-03-25T07:02:44.821Z,91.00
2019-03-25T07:05:16.547Z,73.20
2019-03-25T07:07:48.062Z,73.70
2019-03-25T07:10:30.521Z,72.67
2019-03-25T07:13:02.792Z,69.53
2019-03-25T07:15:34.168Z,71.62
2019-03-25T07:18:05.577Z,68.67
2019-03-25T07:20:36.886Z,69.42
2019-03-25T07:23:08.155Z,77.82
2019-03-25T07:25:40.702Z,71.80
2019-03-25T07:28:11.790Z,61.83
2019-03-25T07:30:43.348Z,64.95
2019-03-25T07:33:14.594Z,53.58
2019-03-25T07:35:46.656Z,50.08
2019-03-25T07:38:18.211Z,53.20
2019-03-25T07:40:51.462Z,56.37
2019-03-25T07:43:25.164Z,51.70
2019-03-25T07:45:57.308Z,51.60
2019-03-25T07:48:28.497Z,46.73
2019-03-25T07:50:59.812Z,47.83
2019-03-25T07:53:31.914Z,46.15
2019-03-25T07:56:03.434Z,49.55
2019-03-25T07:58:36.884Z,52.48
2019-03-25T08:01:08.420Z,37.00
2019-03-25T08:03:41.846Z,37.38
2019-03-25T08:06:13.443Z,28.17
2019-03-25T08:08:45.585Z,17.37
2019-03-25T08:11:17.910Z,17.48
2019-03-25T08:13:52.857Z,16.15
2019-03-25T08:16:25.260Z,25.23
2019-03-25T08:18:57.543Z,17.98
2019-03-25T08:21:29.723Z,17.05
2019-03-25T08:24:01.107Z,21.85
2019-03-25T08:26:32.382Z,20.52
2019-03-25T08:29:03.629Z,19.50
2019-03-25T08:31:34.916Z,20.70
2019-03-25T08:34:06.193Z,19.10
2019-03-25T08:36:37.495Z,18.50
2019-03-25T08:39:08.652Z,16.32
2019-03-25T08:41:39.937Z,22.40
2019-03-25T08:44:12.248Z,18.10
2019-03-25T08:46:43.355Z,17.85
2019-03-25T08:49:15.131Z,18.35
2019-03-25T08:51:52.110Z,18.65
2019-03-25T08:54:27.864Z,19.95
2019-03-25T08:56:59.408Z,20.72
2019-03-25T08:59:31.732Z,17.20
2019-03-25T09:02:03.931Z,21.12
2019-03-25T09:04:35.304Z,36.73
2019-03-25T09:07:08.696Z,21.15
2019-03-25T09:09:41.668Z,18.77
2019-03-25T09:12:14.017Z,19.60
2019-03-25T09:14:54.657Z,20.10
2019-03-25T09:17:28.310Z,21.12
2019-03-25T09:20:01.545Z,17.90
2019-03-25T09:22:34.956Z,15.60
2019-03-25T09:25:07.555Z,20.82
2019-03-25T09:30:11.695Z,17.77
2019-03-25T09:32:43.071Z,19.45
2019-03-25T09:35:15.468Z,14.68
2019-03-25T09:37:48.496Z,18.10
2019-03-25T09:40:23.396Z,16.93
2019-03-25T09:42:54.765Z,18.63
2019-03-25T09:45:30.999Z,15.18
2019-03-25T09:48:02.682Z,15.05
2019-03-25T09:50:34.167Z,18.40
2019-03-25T09:53:05.597Z,17.17
2019-03-25T09:55:37.140Z,16.20
2019-03-25T09:58:08.415Z,49.20
2019-03-25T10:00:39.574Z,16.87
2019-03-25T10:03:11.847Z,14.25
2019-03-25T10:05:42.887Z,18.98
2019-03-25T10:08:19.304Z,18.07
2019-03-25T10:10:51.593Z,15.10
2019-03-25T10:13:23.328Z,17.50
2019-03-25T10:15:56.802Z,17.15
2019-03-25T10:18:28.120Z,15.93
2019-03-25T10:21:00.003Z,14.40
2019-03-25T10:23:32.031Z,19.05
2019-03-25T10:26:03.223Z,17.20
2019-03-25T10:28:34.596Z,19.70
2019-03-25T10:31:05.770Z,15.63
2019-03-25T10:33:37.023Z,15.00
2019-03-25T10:36:08.474Z,14.45
2019-03-25T10:38:44.356Z,19.17
2019-03-25T10:41:16.689Z,14.65
2019-03-25T10:43:49.494Z,15.78
2019-03-25T10:46:22.005Z,20.15
2019-03-25T10:48:54.250Z,16.10
2019-03-25T10:51:25.617Z,14.13
2019-03-25T10:53:57.040Z,16.15
2019-03-25T10:56:29.462Z,15.18
2019-03-25T10:59:01.858Z,13.45
2019-03-25T11:01:33.069Z,14.55
2019-03-25T11:04:04.387Z,12.45
2019-03-25T11:06:35.724Z,14.30
2019-03-25T11:09:07.451Z,16.87
2019-03-25T11:11:39.677Z,17.90
2019-03-25T11:14:12.036Z,13.55
2019-03-25T11:16:43.199Z,17.87
2019-03-25T11:19:14.544Z,11.12
2019-03-25T11:21:53.468Z,13.62
2019-03-25T11:24:26.241Z,16.20
2019-03-25T11:26:58.488Z,15.95
2019-03-25T11:29:30.670Z,15.15
2019-03-25T11:32:02.300Z,12.10
2019-03-25T11:34:33.986Z,14.18
2019-03-25T11:37:05.145Z,13.05
2019-03-25T11:39:37.476Z,13.55
2019-03-25T11:42:11.677Z,12.82
2019-03-25T11:44:47.049Z,11.90
2019-03-25T11:47:18.350Z,11.48
2019-03-25T11:49:52.240Z,19.77
2019-03-25T11:52:30.117Z,22.67
2019-03-25T11:55:02.503Z,14.13
2019-03-25T11:57:35.546Z,13.60
2019-03-25T12:00:08.591Z,11.47
2019-03-25T12:02:41.453Z,16.80
2019-03-25T12:05:12.812Z,13.03
2019-03-25T12:07:47.072Z,9.00
2019-03-25T12:10:19.371Z,12.90
2019-03-25T12:12:51.587Z,14.63
2019-03-25T12:15:24.953Z,13.93
2019-03-25T12:18:01.523Z,11.90
2019-03-25T12:20:33.047Z,11.43
2019-03-25T12:23:10.815Z,21.62
2019-03-25T12:25:42.268Z,12.13
2019-03-25T12:28:13.698Z,13.08
2019-03-25T12:30:44.921Z,12.65
2019-03-25T12:33:17.220Z,17.50
2019-03-25T12:35:48.635Z,19.23
2019-03-25T12:38:20.255Z,14.93
2019-03-25T12:40:52.632Z,15.80
2019-03-25T12:43:23.704Z,17.90
2019-03-25T12:45:54.958Z,12.18
2019-03-25T12:48:26.809Z,16.27
2019-03-25T12:50:58.592Z,15.40
2019-03-25T12:53:29.764Z,19.10
2019-03-25T12:56:02.247Z,12.88
2019-03-25T12:58:33.520Z,22.93
2019-03-25T13:01:08.659Z,23.30
2019-03-25T13:03:40.958Z,20.97
2019-03-25T13:06:14.365Z,17.23
2019-03-25T13:08:45.986Z,17.57
2019-03-25T13:11:17.394Z,17.65
2019-03-25T13:13:56.468Z,32.42
2019-03-25T13:16:36.745Z,17.70
2019-03-25T13:19:20.194Z,19.17
2019-03-25T13:21:56.391Z,14.87
2019-03-25T13:24:41.585Z,17.70
2019-03-25T13:27:18.282Z,16.57
2019-03-25T13:29:59.210Z,22.52
2019-03-25T13:32:37.235Z,31.17
2019-03-25T13:35:42.144Z,18.20
2019-03-25T13:38:22.824Z,19.55
2019-03-25T13:40:59.107Z,18.95
2019-03-25T13:43:35.567Z,17.00
2019-03-25T13:46:10.481Z,19.85
2019-03-25T13:48:44.904Z,15.83
2019-03-25T13:51:19.410Z,26.85
2019-03-25T13:53:59.834Z,15.43
2019-03-25T13:56:32.207Z,14.87
2019-03-25T13:59:03.637Z,16.57
2019-03-25T14:01:35.503Z,17.60
2019-03-25T14:04:06.781Z,14.23
2019-03-25T14:06:40.194Z,35.35
2019-03-25T14:09:11.832Z,27.02
2019-03-25T14:11:44.364Z,29.87
2019-03-25T14:14:16.678Z,34.58
2019-03-25T14:16:49.081Z,38.40
2019-03-25T14:19:32.442Z,33.35
2019-03-25T14:22:03.866Z,30.50
2019-03-25T14:24:39.479Z,34.70
2019-03-25T14:27:13.006Z,27.70
2019-03-25T14:29:44.385Z,32.13
2019-03-25T14:32:15.707Z,60.10
2019-03-25T14:34:47.153Z,22.60
2019-03-25T14:37:21.226Z,25.27
2019-03-25T14:39:53.394Z,33.48
2019-03-25T14:42:25.414Z,22.67
2019-03-25T14:45:00.655Z,26.12
2019-03-25T14:47:33.403Z,26.65
2019-03-25T14:50:06.727Z,20.75
2019-03-25T14:52:38.074Z,24.15
2019-03-25T14:55:10.087Z,24.30
2019-03-25T14:57:41.639Z,21.40
2019-03-25T15:00:13.257Z,19.30
2019-03-25T15:02:45.065Z,19.73
2019-03-25T15:05:16.443Z,20.40
2019-03-25T15:07:48.775Z,19.87
2019-03-25T15:10:21.533Z,15.85
2019-03-25T15:12:57.023Z,19.67
2019-03-25T15:15:31.333Z,20.62
2019-03-25T15:18:03.708Z,18.77
2019-03-25T15:20:34.981Z,20.02
2019-03-25T15:23:08.527Z,25.80
2019-03-25T15:25:44.386Z,26.48
2019-03-25T15:28:15.714Z,26.20
2019-03-25T15:30:47.286Z,27.10
2019-03-25T15:33:20.694Z,32.05
2019-03-25T15:35:52.911Z,26.03
2019-03-25T15:38:25.549Z,32.93
2019-03-25T15:40:57.071Z,33.25
2019-03-25T15:43:28.761Z,33.42
2019-03-25T15:46:00.662Z,29.65
2019-03-25T15:48:32.870Z,29.60
2019-03-25T15:51:04.063Z,35.80
2019-03-25T15:53:35.466Z,31.87
2019-03-25T15:56:08.701Z,31.40
2019-03-25T15:58:40.128Z,37.75
2019-03-25T16:01:12.964Z,67.80
2019-03-25T16:03:44.138Z,88.37
2019-03-25T16:06:15.742Z,34.70
2019-03-25T16:08:46.980Z,35.25
2019-03-25T16:11:18.763Z,37.42
2019-03-25T16:13:49.877Z,36.13
2019-03-25T16:16:22.023Z,32.42
2019-03-25T16:18:53.185Z,31.48
2019-03-25T16:21:24.587Z,35.83
2019-03-25T16:23:55.761Z,40.03
2019-03-25T16:26:26.974Z,35.40
2019-03-25T16:28:58.419Z,32.28
2019-03-25T16:31:29.553Z,29.12
2019-03-25T16:34:00.789Z,36.53
2019-03-25T16:36:32.107Z,36.88
2019-03-25T16:39:04.303Z,41.25
2019-03-25T16:41:37.089Z,34.08
2019-03-25T16:44:08.384Z,33.90
2019-03-25T16:46:39.612Z,31.95
2019-03-25T16:49:11.840Z,37.70
2019-03-25T16:51:43.062Z,36.03
2019-03-25T16:54:15.268Z,39.98
2019-03-25T16:56:47.126Z,50.75
2019-03-25T16:59:18.441Z,31.37
2019-03-25T17:01:49.939Z,34.10
2019-03-25T17:04:21.405Z,25.45
2019-03-25T17:06:53.604Z,28.55
2019-03-25T17:09:26.154Z,35.63
2019-03-25T17:11:57.834Z,30.35
2019-03-25T17:14:29.085Z,37.55
2019-03-25T17:17:02.470Z,35.83
2019-03-25T17:19:33.728Z,36.90
2019-03-25T17:22:06.038Z,27.77
2019-03-25T17:24:37.601Z,24.82
2019-03-25T17:27:08.760Z,26.68
2019-03-25T17:29:41.197Z,20.57
2019-03-25T17:32:13.013Z,20.02
2019-03-25T17:34:44.278Z,17.82
2019-03-25T17:37:17.393Z,19.60
2019-03-25T17:39:48.881Z,18.65
2019-03-25T17:42:20.029Z,19.25
2019-03-25T17:44:51.204Z,24.12
2019-03-25T17:47:22.365Z,17.37
2019-03-25T17:49:55.301Z,24.43
2019-03-25T17:52:28.190Z,19.55
2019-03-25T17:54:59.677Z,21.27
2019-03-25T17:57:31.191Z,23.52
2019-03-25T18:00:03.047Z,25.82
2019-03-25T18:02:39.531Z,21.55
2019-03-25T18:05:11.523Z,21.70
2019-03-25T18:07:42.870Z,22.60
2019-03-25T18:10:16.293Z,24.30
2019-03-25T18:12:47.676Z,16.70
2019-03-25T18:15:19.235Z,19.52
2019-03-25T18:17:51.711Z,19.62
2019-03-25T18:20:23.036Z,22.50
2019-03-25T18:22:54.231Z,21.93
2019-03-25T18:25:25.589Z,19.87
2019-03-25T18:27:56.877Z,22.62
2019-03-25T18:30:35.822Z,23.42
2019-03-25T18:33:07.083Z,21.62
2019-03-25T18:35:38.307Z,19.20
2019-03-25T18:38:10.477Z,22.93
2019-03-25T18:40:41.761Z,27.07
2019-03-25T18:43:13.376Z,22.00
2019-03-25T18:45:47.941Z,23.42
2019-03-25T18:48:19.372Z,22.85
2019-03-25T18:50:50.940Z,23.32
2019-03-25T18:53:22.195Z,24.80
2019-03-25T18:55:55.261Z,21.35
2019-03-25T18:58:27.121Z,27.58
2019-03-25T19:01:00.919Z,26.48
2019-03-25T19:03:35.360Z,21.02
2019-03-25T19:06:06.851Z,18.30
2019-03-25T19:08:45.191Z,19.05
2019-03-25T19:11:17.846Z,19.32
2019-03-25T19:13:49.025Z,18.32
2019-03-25T19:16:20.171Z,19.23
2019-03-25T19:18:52.708Z,20.15
2019-03-25T19:21:24.130Z,20.97
2019-03-25T19:23:55.513Z,19.62
2019-03-25T19:26:26.716Z,19.40
2019-03-25T19:29:01.405Z,19.85
2019-03-25T19:31:34.974Z,18.00
2019-03-25T19:34:06.503Z,20.08
2019-03-25T19:36:38.010Z,22.25
2019-03-25T19:39:09.105Z,21.35
2019-03-25T19:41:40.426Z,21.82
2019-03-25T19:44:11.911Z,21.02
2019-03-25T19:46:43.468Z,21.95
2019-03-25T19:49:15.177Z,19.60
2019-03-25T19:51:46.462Z,26.27
2019-03-25T19:54:19.320Z,24.80
2019-03-25T19:56:50.916Z,25.15
2019-03-25T19:59:22.280Z,24.75
2019-03-25T20:01:53.737Z,28.98
2019-03-25T20:04:25.403Z,25.92
2019-03-25T20:06:56.740Z,23.52
2019-03-25T20:09:28.209Z,23.05
2019-03-25T20:11:59.508Z,24.95
2019-03-25T20:14:30.624Z,23.55
2019-03-25T20:17:01.966Z,26.65
2019-03-25T20:19:34.879Z,24.30
2019-03-25T20:22:06.089Z,21.12
2019-03-25T20:24:37.714Z,26.52
2019-03-25T20:27:08.909Z,24.25
2019-03-25T20:29:40.593Z,22.82
2019-03-25T20:32:11.894Z,27.00
2019-03-25T20:34:43.150Z,26.07
2019-03-25T20:37:14.627Z,23.57
2019-03-25T20:39:45.915Z,23.90
2019-03-25T20:42:17.036Z,28.38
2019-03-25T20:44:48.501Z,26.05
2019-03-25T20:47:20.033Z,26.10
2019-03-25T20:49:51.338Z,25.85
2019-03-25T20:52:24.478Z,27.60
2019-03-25T20:54:59.648Z,30.50
2019-03-25T20:57:32.015Z,28.50
2019-03-25T21:00:04.531Z,30.17
2019-03-25T21:02:44.768Z,30.23
2019-03-25T21:05:09.183Z,28.70
2019-03-25T21:07:40.806Z,28.45
2019-03-25T21:10:11.975Z,32.98
2019-03-25T21:12:43.356Z,36.40
2019-03-25T21:15:16.179Z,28.80
2019-03-25T21:17:47.403Z,24.23
2019-03-25T21:20:19.768Z,24.92
2019-03-25T21:22:51.224Z,26.33
2019-03-25T21:25:22.374Z,23.27
2019-03-25T21:27:53.621Z,20.35
2019-03-25T21:30:28.198Z,24.02
2019-03-25T21:32:58.836Z,18.92
2019-03-25T21:35:30.008Z,18.52
2019-03-25T21:38:01.071Z,21.65
2019-03-25T21:40:34.242Z,20.55
2019-03-25T21:43:05.274Z,20.88
2019-03-25T21:45:37.026Z,21.27
2019-03-25T21:48:08.325Z,18.25
2019-03-25T21:50:39.435Z,19.23
2019-03-25T21:53:10.555Z,18.40
2019-03-25T21:55:41.902Z,17.12
2019-03-25T21:58:13.021Z,21.73
2019-03-25T22:00:44.349Z,22.93
2019-03-25T22:03:15.619Z,21.12
2019-03-25T22:05:47.192Z,15.45
2019-03-25T22:08:18.520Z,19.07
2019-03-25T22:10:49.666Z,21.35
2019-03-25T22:13:20.879Z,20.55
2019-03-25T22:15:52.115Z,21.73
2019-03-25T22:18:23.050Z,18.52
2019-03-25T22:20:54.960Z,21.42
2019-03-25T22:23:25.983Z,17.37
2019-03-25T22:25:56.930Z,18.42
2019-03-25T22:28:27.903Z,15.10
2019-03-25T22:30:58.935Z,14.53
2019-03-25T22:33:29.904Z,17.40
2019-03-25T22:36:01.082Z,17.25
2019-03-25T22:38:32.280Z,21.25
2019-03-25T22:41:03.471Z,13.40
2019-03-25T22:43:34.602Z,13.62
2019-03-25T22:46:05.779Z,13.65
2019-03-25T22:48:36.968Z,17.05
2019-03-25T22:51:08.006Z,14.60
2019-03-25T22:53:39.162Z,19.15
2019-03-25T22:56:10.338Z,20.10
2019-03-25T22:58:41.354Z,16.17
2019-03-25T23:01:12.513Z,16.30
2019-03-25T23:03:43.659Z,17.77
2019-03-25T23:06:15.091Z,13.05
2019-03-25T23:08:46.295Z,16.95
2019-03-25T23:11:18.591Z,12.88
2019-03-25T23:13:49.648Z,13.48
2019-03-25T23:16:21.777Z,18.70
2019-03-25T23:18:52.838Z,20.48
2019-03-25T23:21:26.019Z,14.78
2019-03-25T23:23:57.500Z,19.15
2019-03-25T23:26:28.919Z,18.25
2019-03-25T23:29:00.255Z,15.68
2019-03-25T23:31:31.471Z,14.68
2019-03-25T23:34:02.626Z,16.52
2019-03-25T23:36:33.708Z,19.77
2019-03-25T23:39:06.847Z,16.45
2019-03-25T23:41:38.110Z,25.00
2019-03-25T23:44:09.244Z,22.52
2019-03-25T23:46:40.236Z,16.82
2019-03-25T23:49:12.536Z,15.63
2019-03-25T23:51:43.718Z,20.00
2019-03-25T23:54:15.253Z,11.08
2019-03-25T23:56:46.616Z,16.90
2019-03-25T23:59:17.561Z,15.63
